EDT,Max TemperatureF,Mean TemperatureF,Min TemperatureF,Max Dew PointF,MeanDew PointF,Min DewpointF,Max Humidity, Mean Humidity, Min Humidity, Max Sea Level PressureIn, Mean Sea Level PressureIn, Min Sea Level PressureIn, Max VisibilityMiles, Mean VisibilityMiles, Min VisibilityMiles, Max Wind SpeedMPH, Mean Wind SpeedMPH, Max Gust SpeedMPH,PrecipitationIn, CloudCover, Events, WindDirDegrees
2013-4-1,46,37,26,32,17,12,75,47,31,30.09,29.94,29.69,10,10,10,21,14,28,0.00,3,Snow,299
2013-4-2,44,34,24,21,15,10,80,51,27,30.23,30.14,30.09,10,10,10,21,9,26,0.00,2,,283
2013-4-3,42,33,24,25,16,9,74,52,26,30.40,30.34,30.23,10,10,10,16,6,23,0.00,0,,278
2013-4-4,53,40,26,28,19,14,81,51,22,30.36,30.15,29.94,10,10,10,9,4,17,0.00,0,,172
2013-4-5,51,42,33,34,26,14,87,54,22,30.20,30.06,29.92,10,10,7,14,5,21,0.00,3,,29
2013-4-6,51,42,33,36,27,19,76,59,37,30.25,30.10,29.79,10,10,10,16,8,22,0.00,2,,113
2013-4-7,60,52,44,46,38,23,67,51,29,30.02,29.82,29.64,10,10,10,29,16,37,0.00,3,Rain,256
2013-4-8,71,55,39,57,43,36,94,77,56,30.04,29.88,29.70,10,9,2,23,8,34,0.00,3,Rain,116
2013-4-9,53,46,39,46,43,37,100,86,72,30.08,29.98,29.87,10,6,1,12,5,16,0.00,5,,87
2013-4-10,51,46,42,46,44,41,100,94,82,29.96,29.91,29.82,10,4,0,15,7,20,0.00,8,Rain,45
2013-4-11,42,40,37,43,39,36,100,94,87,29.96,29.82,29.60,10,6,1,20,11,32,0.00,8,Rain,72
2013-4-12,42,40,37,41,37,34,100,85,70,29.79,29.64,29.51,10,8,2,23,11,29,0.00,8,Rain,252
2013-4-13,44,42,39,37,33,30,87,74,61,29.99,29.87,29.79,10,10,4,23,14,31,0.00,8,Rain,243
2013-4-14,46,40,33,37,33,27,93,73,57,30.10,30.02,29.93,10,10,7,14,4,18,0.00,4,Rain,104
2013-4-15,69,54,39,54,47,37,100,71,53,29.96,29.92,29.87,10,10,5,21,10,25,0.00,3,Rain,159
2013-4-16,62,56,51,54,47,37,94,72,45,30.20,30.04,29.87,10,9,2,14,8,18,0.00,6,Rain,284
2013-4-17,53,48,44,43,36,30,87,61,47,30.31,30.22,30.04,10,10,10,17,9,23,0.00,5,Rain,69
2013-4-18,80,63,46,64,55,41,94,82,51,30.03,29.74,29.58,10,9,2,30,13,41,0.00,5,Rain,182
2013-4-19,64,50,37,59,41,30,100,80,61,29.78,29.57,29.34,10,9,2,32,13,43,0.00,8,Rain,235
2013-4-20,42,38,32,32,25,21,81,60,42,30.43,30.15,29.78,10,10,10,20,14,28,0.00,5,,289
2013-4-21,44,36,28,32,27,21,93,68,43,30.61,30.52,30.43,10,10,10,13,4,20,0.00,1,,106
2013-4-22,59,48,37,39,35,23,100,66,27,30.45,30.32,30.19,10,10,5,14,6,18,0.00,0,,105
2013-4-23,71,56,42,55,44,36,94,65,35,30.18,30.00,29.80,10,9,2,21,6,28,0.00,3,Rain,172
2013-4-24,59,48,37,55,41,30,100,88,61,30.14,29.87,29.70,10,8,2,17,10,26,0.00,7,Rain,291
2013-4-25,51,43,35,43,34,28,87,71,44,30.34,30.18,30.12,10,10,3,25,9,38,0.00,2,Rain,247
2013-4-26,55,42,30,41,35,30,100,70,47,30.46,30.39,30.35,10,10,5,12,3,,0.00,0,,138
2013-4-27,66,50,35,45,38,34,100,62,32,30.37,30.26,30.09,10,8,1,14,3,17,0.00,0,,124
2013-4-28,55,52,48,54,49,37,100,90,62,30.09,29.93,29.82,10,6,1,10,5,,0.00,8,Rain,100
2013-4-29,68,60,53,55,55,54,100,85,64,29.94,29.90,29.82,10,7,0,8,2,,0.00,5,Fog-Rain,202
2013-4-30,71,62,53,57,55,52,100,79,57,30.08,30.01,29.94,10,8,3,17,5,22,0.00,1,,156